sensor_id;sensor_type;location;lat;lon;timestamp;P1;durP1;ratioP1;P2;durP2;ratioP2
23898;SDS011;20544;50.018;20.010;2022-08-25T00:03:19;10.53;;;5.08;;
23898;SDS011;20544;50.018;20.010;2022-08-25T00:06:37;10.73;;;5.20;;
23898;SDS011;20544;50.018;20.010;2022-08-25T00:09:55;9.63;;;4.83;;
23898;SDS011;20544;50.018;20.010;2022-08-25T00:13:11;10.43;;;4.90;;
23898;SDS011;20544;50.018;20.010;2022-08-25T00:16:30;9.80;;;4.73;;
23898;SDS011;20544;50.018;20.010;2022-08-25T00:19:46;13.55;;;4.98;;
23898;SDS011;20544;50.018;20.010;2022-08-25T00:23:02;11.68;;;5.35;;
23898;SDS011;20544;50.018;20.010;2022-08-25T00:26:18;11.65;;;4.98;;
23898;SDS011;20544;50.018;20.010;2022-08-25T00:29:35;10.55;;;4.73;;
23898;SDS011;20544;50.018;20.010;2022-08-25T00:36:07;10.63;;;5.05;;
23898;SDS011;20544;50.018;20.010;2022-08-25T00:39:24;11.60;;;4.53;;
23898;SDS011;20544;50.018;20.010;2022-08-25T00:42:40;10.95;;;4.90;;
23898;SDS011;20544;50.018;20.010;2022-08-25T00:45:57;10.45;;;4.73;;
23898;SDS011;20544;50.018;20.010;2022-08-25T00:49:15;10.73;;;5.38;;
23898;SDS011;20544;50.018;20.010;2022-08-25T00:52:35;11.35;;;5.38;;
23898;SDS011;20544;50.018;20.010;2022-08-25T00:55:56;10.35;;;5.50;;
23898;SDS011;20544;50.018;20.010;2022-08-25T00:59:12;11.08;;;5.50;;
23898;SDS011;20544;50.018;20.010;2022-08-25T01:02:30;7.45;;;4.58;;
23898;SDS011;20544;50.018;20.010;2022-08-25T01:05:47;11.03;;;5.43;;
23898;SDS011;20544;50.018;20.010;2022-08-25T01:09:05;11.13;;;4.97;;
23898;SDS011;20544;50.018;20.010;2022-08-25T01:12:22;12.83;;;5.75;;
23898;SDS011;20544;50.018;20.010;2022-08-25T01:15:38;8.75;;;5.50;;
23898;SDS011;20544;50.018;20.010;2022-08-25T01:22:11;9.10;;;4.80;;
23898;SDS011;20544;50.018;20.010;2022-08-25T01:25:31;9.03;;;5.13;;
23898;SDS011;20544;50.018;20.010;2022-08-25T01:28:52;11.90;;;5.00;;
23898;SDS011;20544;50.018;20.010;2022-08-25T01:35:40;10.20;;;5.60;;
23898;SDS011;20544;50.018;20.010;2022-08-25T01:38:57;16.90;;;6.08;;
23898;SDS011;20544;50.018;20.010;2022-08-25T01:42:22;10.03;;;5.40;;
23898;SDS011;20544;50.018;20.010;2022-08-25T01:45:51;10.88;;;5.53;;
23898;SDS011;20544;50.018;20.010;2022-08-25T01:49:08;11.20;;;5.63;;
23898;SDS011;20544;50.018;20.010;2022-08-25T01:52:27;11.10;;;5.38;;
23898;SDS011;20544;50.018;20.010;2022-08-25T01:55:45;13.20;;;5.95;;
23898;SDS011;20544;50.018;20.010;2022-08-25T01:59:07;11.55;;;5.30;;
23898;SDS011;20544;50.018;20.010;2022-08-25T02:02:28;12.48;;;5.55;;
23898;SDS011;20544;50.018;20.010;2022-08-25T02:05:47;12.03;;;5.13;;
23898;SDS011;20544;50.018;20.010;2022-08-25T02:09:05;11.88;;;5.20;;
23898;SDS011;20544;50.018;20.010;2022-08-25T02:12:24;12.28;;;5.58;;
23898;SDS011;20544;50.018;20.010;2022-08-25T02:15:43;10.30;;;4.70;;
23898;SDS011;20544;50.018;20.010;2022-08-25T02:19:03;12.23;;;5.50;;
23898;SDS011;20544;50.018;20.010;2022-08-25T02:22:22;8.33;;;5.53;;
23898;SDS011;20544;50.018;20.010;2022-08-25T02:25:39;10.28;;;5.20;;
23898;SDS011;20544;50.018;20.010;2022-08-25T02:28:56;11.15;;;5.50;;
23898;SDS011;20544;50.018;20.010;2022-08-25T02:32:13;11.60;;;5.83;;
23898;SDS011;20544;50.018;20.010;2022-08-25T02:35:29;10.78;;;5.23;;
23898;SDS011;20544;50.018;20.010;2022-08-25T02:38:45;10.48;;;4.90;;
23898;SDS011;20544;50.018;20.010;2022-08-25T02:42:02;12.13;;;5.50;;
23898;SDS011;20544;50.018;20.010;2022-08-25T02:45:19;14.18;;;5.80;;
23898;SDS011;20544;50.018;20.010;2022-08-25T02:48:36;9.98;;;5.50;;
23898;SDS011;20544;50.018;20.010;2022-08-25T02:51:53;9.98;;;5.18;;
23898;SDS011;20544;50.018;20.010;2022-08-25T02:55:10;10.75;;;5.25;;
23898;SDS011;20544;50.018;20.010;2022-08-25T02:58:26;10.00;;;5.43;;
23898;SDS011;20544;50.018;20.010;2022-08-25T03:08:14;13.10;;;5.78;;
23898;SDS011;20544;50.018;20.010;2022-08-25T03:11:31;11.83;;;5.70;;
23898;SDS011;20544;50.018;20.010;2022-08-25T03:14:48;11.60;;;5.53;;
23898;SDS011;20544;50.018;20.010;2022-08-25T03:18:05;12.05;;;5.80;;
23898;SDS011;20544;50.018;20.010;2022-08-25T03:21:22;11.13;;;5.80;;
23898;SDS011;20544;50.018;20.010;2022-08-25T03:24:39;11.50;;;6.00;;
23898;SDS011;20544;50.018;20.010;2022-08-25T03:27:55;15.10;;;6.70;;
23898;SDS011;20544;50.018;20.010;2022-08-25T03:31:12;10.85;;;6.38;;
23898;SDS011;20544;50.018;20.010;2022-08-25T03:35:26;10.43;;;6.10;;
23898;SDS011;20544;50.018;20.010;2022-08-25T03:38:43;13.10;;;6.73;;
23898;SDS011;20544;50.018;20.010;2022-08-25T03:42:01;11.20;;;6.43;;
23898;SDS011;20544;50.018;20.010;2022-08-25T03:45:18;14.03;;;7.03;;
23898;SDS011;20544;50.018;20.010;2022-08-25T03:48:35;16.83;;;7.40;;
23898;SDS011;20544;50.018;20.010;2022-08-25T03:51:52;14.40;;;7.05;;
23898;SDS011;20544;50.018;20.010;2022-08-25T03:55:10;10.60;;;7.05;;
23898;SDS011;20544;50.018;20.010;2022-08-25T03:58:27;15.28;;;8.25;;
23898;SDS011;20544;50.018;20.010;2022-08-25T04:01:44;16.50;;;9.58;;
23898;SDS011;20544;50.018;20.010;2022-08-25T04:05:01;16.55;;;7.45;;
23898;SDS011;20544;50.018;20.010;2022-08-25T04:08:20;13.60;;;7.50;;
23898;SDS011;20544;50.018;20.010;2022-08-25T04:11:37;13.35;;;7.50;;
23898;SDS011;20544;50.018;20.010;2022-08-25T04:14:55;14.57;;;7.77;;
23898;SDS011;20544;50.018;20.010;2022-08-25T04:18:12;15.45;;;8.00;;
23898;SDS011;20544;50.018;20.010;2022-08-25T04:21:28;14.55;;;8.13;;
23898;SDS011;20544;50.018;20.010;2022-08-25T04:24:45;12.08;;;7.90;;
23898;SDS011;20544;50.018;20.010;2022-08-25T04:28:01;12.00;;;7.08;;
23898;SDS011;20544;50.018;20.010;2022-08-25T04:31:18;15.05;;;7.15;;
23898;SDS011;20544;50.018;20.010;2022-08-25T04:34:35;11.50;;;7.03;;
23898;SDS011;20544;50.018;20.010;2022-08-25T04:37:51;14.15;;;7.55;;
23898;SDS011;20544;50.018;20.010;2022-08-25T04:41:09;14.73;;;8.23;;
23898;SDS011;20544;50.018;20.010;2022-08-25T04:44:30;15.00;;;8.15;;
23898;SDS011;20544;50.018;20.010;2022-08-25T04:47:47;11.68;;;7.50;;
23898;SDS011;20544;50.018;20.010;2022-08-25T04:51:06;16.10;;;7.45;;
23898;SDS011;20544;50.018;20.010;2022-08-25T04:54:25;13.58;;;6.73;;
23898;SDS011;20544;50.018;20.010;2022-08-25T04:57:42;9.33;;;6.88;;
23898;SDS011;20544;50.018;20.010;2022-08-25T05:01:01;19.43;;;8.48;;
23898;SDS011;20544;50.018;20.010;2022-08-25T05:04:21;12.88;;;7.10;;
23898;SDS011;20544;50.018;20.010;2022-08-25T05:07:37;12.90;;;7.85;;
23898;SDS011;20544;50.018;20.010;2022-08-25T05:10:54;11.95;;;7.50;;
23898;SDS011;20544;50.018;20.010;2022-08-25T05:14:10;11.35;;;7.35;;
23898;SDS011;20544;50.018;20.010;2022-08-25T05:17:30;13.18;;;8.20;;
23898;SDS011;20544;50.018;20.010;2022-08-25T05:20:46;16.90;;;9.05;;
23898;SDS011;20544;50.018;20.010;2022-08-25T05:24:04;14.53;;;8.43;;
23898;SDS011;20544;50.018;20.010;2022-08-25T05:27:21;17.00;;;8.93;;
23898;SDS011;20544;50.018;20.010;2022-08-25T05:30:38;15.28;;;8.05;;
23898;SDS011;20544;50.018;20.010;2022-08-25T05:33:56;18.35;;;8.03;;
23898;SDS011;20544;50.018;20.010;2022-08-25T05:37:14;16.70;;;8.03;;
23898;SDS011;20544;50.018;20.010;2022-08-25T05:40:31;14.55;;;7.78;;
23898;SDS011;20544;50.018;20.010;2022-08-25T05:43:48;17.80;;;9.30;;
23898;SDS011;20544;50.018;20.010;2022-08-25T05:47:05;15.98;;;7.90;;
23898;SDS011;20544;50.018;20.010;2022-08-25T05:50:21;16.83;;;7.28;;
23898;SDS011;20544;50.018;20.010;2022-08-25T05:53:38;19.05;;;7.50;;
23898;SDS011;20544;50.018;20.010;2022-08-25T05:56:56;16.68;;;7.65;;
23898;SDS011;20544;50.018;20.010;2022-08-25T06:00:13;15.43;;;7.90;;
23898;SDS011;20544;50.018;20.010;2022-08-25T06:03:30;17.35;;;8.23;;
23898;SDS011;20544;50.018;20.010;2022-08-25T06:06:46;15.80;;;7.98;;
23898;SDS011;20544;50.018;20.010;2022-08-25T06:10:03;22.08;;;8.43;;
23898;SDS011;20544;50.018;20.010;2022-08-25T06:16:35;17.80;;;8.35;;
23898;SDS011;20544;50.018;20.010;2022-08-25T06:22:16;18.05;;;7.68;;
23898;SDS011;20544;50.018;20.010;2022-08-25T06:25:32;21.03;;;7.93;;
23898;SDS011;20544;50.018;20.010;2022-08-25T06:28:48;19.30;;;8.58;;
23898;SDS011;20544;50.018;20.010;2022-08-25T06:35:21;19.75;;;7.10;;
23898;SDS011;20544;50.018;20.010;2022-08-25T06:38:39;20.45;;;8.25;;
23898;SDS011;20544;50.018;20.010;2022-08-25T06:41:56;19.33;;;7.60;;
23898;SDS011;20544;50.018;20.010;2022-08-25T06:45:23;16.45;;;7.23;;
23898;SDS011;20544;50.018;20.010;2022-08-25T06:48:39;22.73;;;8.10;;
23898;SDS011;20544;50.018;20.010;2022-08-25T06:51:56;21.45;;;8.68;;
23898;SDS011;20544;50.018;20.010;2022-08-25T06:55:13;24.63;;;8.53;;
23898;SDS011;20544;50.018;20.010;2022-08-25T06:58:30;18.60;;;8.40;;
23898;SDS011;20544;50.018;20.010;2022-08-25T07:08:19;23.68;;;8.93;;
23898;SDS011;20544;50.018;20.010;2022-08-25T07:11:35;27.23;;;8.43;;
23898;SDS011;20544;50.018;20.010;2022-08-25T07:14:52;23.58;;;8.68;;
23898;SDS011;20544;50.018;20.010;2022-08-25T07:18:11;23.93;;;8.15;;
23898;SDS011;20544;50.018;20.010;2022-08-25T07:21:28;21.93;;;8.80;;
23898;SDS011;20544;50.018;20.010;2022-08-25T07:24:49;24.40;;;8.60;;
23898;SDS011;20544;50.018;20.010;2022-08-25T07:28:06;21.28;;;8.53;;
23898;SDS011;20544;50.018;20.010;2022-08-25T07:31:22;21.85;;;9.65;;
23898;SDS011;20544;50.018;20.010;2022-08-25T07:34:38;23.93;;;9.95;;
23898;SDS011;20544;50.018;20.010;2022-08-25T07:38:09;25.23;;;8.65;;
23898;SDS011;20544;50.018;20.010;2022-08-25T07:41:26;19.35;;;8.53;;
23898;SDS011;20544;50.018;20.010;2022-08-25T07:44:42;30.98;;;8.85;;
23898;SDS011;20544;50.018;20.010;2022-08-25T07:48:00;22.15;;;7.55;;
23898;SDS011;20544;50.018;20.010;2022-08-25T07:51:21;25.20;;;7.85;;
23898;SDS011;20544;50.018;20.010;2022-08-25T07:54:37;19.85;;;8.10;;
23898;SDS011;20544;50.018;20.010;2022-08-25T07:57:54;22.98;;;8.98;;
23898;SDS011;20544;50.018;20.010;2022-08-25T08:04:36;26.05;;;9.05;;
23898;SDS011;20544;50.018;20.010;2022-08-25T08:07:55;17.78;;;7.53;;
23898;SDS011;20544;50.018;20.010;2022-08-25T08:11:14;18.10;;;6.85;;
23898;SDS011;20544;50.018;20.010;2022-08-25T08:14:33;21.83;;;7.80;;
23898;SDS011;20544;50.018;20.010;2022-08-25T08:17:51;25.68;;;8.48;;
23898;SDS011;20544;50.018;20.010;2022-08-25T08:21:11;29.65;;;9.03;;
23898;SDS011;20544;50.018;20.010;2022-08-25T08:24:30;38.00;;;27.10;;
23898;SDS011;20544;50.018;20.010;2022-08-25T08:27:49;24.88;;;9.65;;
23898;SDS011;20544;50.018;20.010;2022-08-25T08:31:06;24.35;;;7.70;;
23898;SDS011;20544;50.018;20.010;2022-08-25T08:37:42;23.78;;;9.23;;
23898;SDS011;20544;50.018;20.010;2022-08-25T08:41:02;20.18;;;8.05;;
23898;SDS011;20544;50.018;20.010;2022-08-25T08:48:45;23.98;;;8.35;;
23898;SDS011;20544;50.018;20.010;2022-08-25T08:52:11;19.80;;;7.25;;
23898;SDS011;20544;50.018;20.010;2022-08-25T08:55:33;18.28;;;7.63;;
23898;SDS011;20544;50.018;20.010;2022-08-25T08:58:56;23.05;;;7.98;;
23898;SDS011;20544;50.018;20.010;2022-08-25T09:02:18;26.53;;;8.40;;
23898;SDS011;20544;50.018;20.010;2022-08-25T09:05:43;21.25;;;7.83;;
23898;SDS011;20544;50.018;20.010;2022-08-25T09:09:04;27.23;;;8.83;;
23898;SDS011;20544;50.018;20.010;2022-08-25T09:12:25;20.50;;;7.25;;
23898;SDS011;20544;50.018;20.010;2022-08-25T09:15:50;25.28;;;7.88;;
23898;SDS011;20544;50.018;20.010;2022-08-25T09:19:32;22.30;;;7.93;;
23898;SDS011;20544;50.018;20.010;2022-08-25T09:23:17;22.00;;;6.77;;
23898;SDS011;20544;50.018;20.010;2022-08-25T09:26:41;20.08;;;5.93;;
23898;SDS011;20544;50.018;20.010;2022-08-25T09:30:03;28.23;;;13.95;;
23898;SDS011;20544;50.018;20.010;2022-08-25T09:33:22;27.78;;;16.60;;
23898;SDS011;20544;50.018;20.010;2022-08-25T09:36:43;20.15;;;5.80;;
23898;SDS011;20544;50.018;20.010;2022-08-25T09:40:02;21.33;;;6.33;;
23898;SDS011;20544;50.018;20.010;2022-08-25T09:43:23;16.18;;;5.35;;
23898;SDS011;20544;50.018;20.010;2022-08-25T09:46:54;19.78;;;5.85;;
23898;SDS011;20544;50.018;20.010;2022-08-25T09:50:18;16.88;;;5.43;;
23898;SDS011;20544;50.018;20.010;2022-08-25T09:53:34;17.15;;;6.00;;
23898;SDS011;20544;50.018;20.010;2022-08-25T09:56:55;19.53;;;5.53;;
23898;SDS011;20544;50.018;20.010;2022-08-25T10:00:16;18.18;;;6.18;;
23898;SDS011;20544;50.018;20.010;2022-08-25T10:03:38;14.68;;;5.15;;
23898;SDS011;20544;50.018;20.010;2022-08-25T10:07:22;20.35;;;5.70;;
23898;SDS011;20544;50.018;20.010;2022-08-25T10:10:42;15.83;;;5.83;;
23898;SDS011;20544;50.018;20.010;2022-08-25T10:14:07;20.38;;;6.25;;
23898;SDS011;20544;50.018;20.010;2022-08-25T10:24:26;21.23;;;7.28;;
23898;SDS011;20544;50.018;20.010;2022-08-25T10:27:45;21.20;;;5.23;;
23898;SDS011;20544;50.018;20.010;2022-08-25T10:31:08;13.35;;;5.15;;
23898;SDS011;20544;50.018;20.010;2022-08-25T10:34:36;17.83;;;6.03;;
23898;SDS011;20544;50.018;20.010;2022-08-25T10:38:06;17.33;;;5.45;;
23898;SDS011;20544;50.018;20.010;2022-08-25T10:41:37;20.00;;;6.40;;
23898;SDS011;20544;50.018;20.010;2022-08-25T10:45:09;20.88;;;6.35;;
23898;SDS011;20544;50.018;20.010;2022-08-25T10:48:59;16.10;;;5.88;;
23898;SDS011;20544;50.018;20.010;2022-08-25T10:52:20;16.05;;;5.60;;
23898;SDS011;20544;50.018;20.010;2022-08-25T10:55:50;16.57;;;5.90;;
23898;SDS011;20544;50.018;20.010;2022-08-25T10:59:21;19.73;;;6.05;;
23898;SDS011;20544;50.018;20.010;2022-08-25T11:06:33;17.50;;;8.03;;
23898;SDS011;20544;50.018;20.010;2022-08-25T11:09:56;19.35;;;6.75;;
23898;SDS011;20544;50.018;20.010;2022-08-25T11:13:21;17.18;;;5.95;;
23898;SDS011;20544;50.018;20.010;2022-08-25T11:16:43;45.38;;;33.98;;
23898;SDS011;20544;50.018;20.010;2022-08-25T11:20:06;22.13;;;7.78;;
23898;SDS011;20544;50.018;20.010;2022-08-25T11:23:30;22.25;;;6.88;;
23898;SDS011;20544;50.018;20.010;2022-08-25T11:26:53;17.53;;;5.60;;
23898;SDS011;20544;50.018;20.010;2022-08-25T11:30:12;20.33;;;6.28;;
23898;SDS011;20544;50.018;20.010;2022-08-25T11:36:49;23.05;;;6.55;;
23898;SDS011;20544;50.018;20.010;2022-08-25T11:43:58;19.98;;;5.88;;
23898;SDS011;20544;50.018;20.010;2022-08-25T11:50:53;21.90;;;6.95;;
23898;SDS011;20544;50.018;20.010;2022-08-25T11:54:16;23.13;;;6.50;;
23898;SDS011;20544;50.018;20.010;2022-08-25T11:57:39;22.63;;;6.80;;
23898;SDS011;20544;50.018;20.010;2022-08-25T12:00:59;18.75;;;6.70;;
23898;SDS011;20544;50.018;20.010;2022-08-25T12:04:30;17.45;;;5.18;;
23898;SDS011;20544;50.018;20.010;2022-08-25T12:08:04;19.78;;;5.48;;
23898;SDS011;20544;50.018;20.010;2022-08-25T12:11:49;20.18;;;5.50;;
23898;SDS011;20544;50.018;20.010;2022-08-25T12:15:15;20.60;;;6.18;;
23898;SDS011;20544;50.018;20.010;2022-08-25T12:21:54;26.83;;;6.75;;
23898;SDS011;20544;50.018;20.010;2022-08-25T12:29:03;37.73;;;20.52;;
23898;SDS011;20544;50.018;20.010;2022-08-25T12:32:35;20.70;;;9.38;;
23898;SDS011;20544;50.018;20.010;2022-08-25T12:36:06;19.33;;;6.38;;
23898;SDS011;20544;50.018;20.010;2022-08-25T12:39:29;20.35;;;6.90;;
23898;SDS011;20544;50.018;20.010;2022-08-25T12:42:51;24.40;;;6.25;;
23898;SDS011;20544;50.018;20.010;2022-08-25T12:46:34;16.77;;;5.87;;
23898;SDS011;20544;50.018;20.010;2022-08-25T12:49:53;20.68;;;6.10;;
23898;SDS011;20544;50.018;20.010;2022-08-25T12:53:39;23.63;;;6.33;;
23898;SDS011;20544;50.018;20.010;2022-08-25T12:56:59;20.18;;;6.70;;
23898;SDS011;20544;50.018;20.010;2022-08-25T13:00:21;19.95;;;5.80;;
23898;SDS011;20544;50.018;20.010;2022-08-25T13:07:01;21.40;;;5.83;;
23898;SDS011;20544;50.018;20.010;2022-08-25T13:10:36;30.95;;;10.38;;
23898;SDS011;20544;50.018;20.010;2022-08-25T13:14:03;25.15;;;9.70;;
23898;SDS011;20544;50.018;20.010;2022-08-25T13:17:27;23.38;;;8.65;;
23898;SDS011;20544;50.018;20.010;2022-08-25T13:22:38;21.43;;;7.50;;
23898;SDS011;20544;50.018;20.010;2022-08-25T13:25:59;20.80;;;6.43;;
23898;SDS011;20544;50.018;20.010;2022-08-25T13:29:20;22.95;;;6.30;;
23898;SDS011;20544;50.018;20.010;2022-08-25T13:35:56;33.75;;;13.53;;
23898;SDS011;20544;50.018;20.010;2022-08-25T13:39:29;23.93;;;7.60;;
23898;SDS011;20544;50.018;20.010;2022-08-25T13:42:49;24.63;;;6.65;;
23898;SDS011;20544;50.018;20.010;2022-08-25T13:46:09;23.28;;;9.58;;
23898;SDS011;20544;50.018;20.010;2022-08-25T13:52:42;19.98;;;6.28;;
23898;SDS011;20544;50.018;20.010;2022-08-25T13:56:04;24.00;;;6.43;;
23898;SDS011;20544;50.018;20.010;2022-08-25T13:59:23;26.98;;;6.33;;
23898;SDS011;20544;50.018;20.010;2022-08-25T14:02:46;19.03;;;6.48;;
23898;SDS011;20544;50.018;20.010;2022-08-25T14:06:05;22.83;;;6.55;;
23898;SDS011;20544;50.018;20.010;2022-08-25T14:09:34;20.33;;;6.15;;
23898;SDS011;20544;50.018;20.010;2022-08-25T14:13:05;22.95;;;6.50;;
23898;SDS011;20544;50.018;20.010;2022-08-25T14:16:21;24.80;;;6.05;;
23898;SDS011;20544;50.018;20.010;2022-08-25T14:19:43;22.93;;;6.13;;
23898;SDS011;20544;50.018;20.010;2022-08-25T14:23:01;26.73;;;6.48;;
23898;SDS011;20544;50.018;20.010;2022-08-25T14:26:23;22.03;;;6.08;;
23898;SDS011;20544;50.018;20.010;2022-08-25T14:29:40;24.80;;;6.60;;
23898;SDS011;20544;50.018;20.010;2022-08-25T14:32:58;22.65;;;8.15;;
23898;SDS011;20544;50.018;20.010;2022-08-25T14:36:16;24.20;;;7.70;;
23898;SDS011;20544;50.018;20.010;2022-08-25T14:39:34;25.00;;;7.23;;
23898;SDS011;20544;50.018;20.010;2022-08-25T14:42:51;25.15;;;6.50;;
23898;SDS011;20544;50.018;20.010;2022-08-25T14:46:08;23.15;;;7.10;;
23898;SDS011;20544;50.018;20.010;2022-08-25T14:49:29;24.88;;;6.90;;
23898;SDS011;20544;50.018;20.010;2022-08-25T14:52:49;20.48;;;6.25;;
23898;SDS011;20544;50.018;20.010;2022-08-25T14:56:06;31.08;;;10.58;;
23898;SDS011;20544;50.018;20.010;2022-08-25T14:59:23;22.83;;;7.98;;
23898;SDS011;20544;50.018;20.010;2022-08-25T15:02:43;21.77;;;7.60;;
23898;SDS011;20544;50.018;20.010;2022-08-25T15:06:02;32.25;;;9.18;;
23898;SDS011;20544;50.018;20.010;2022-08-25T15:09:19;26.58;;;7.58;;
23898;SDS011;20544;50.018;20.010;2022-08-25T15:12:37;22.18;;;7.78;;
23898;SDS011;20544;50.018;20.010;2022-08-25T15:15:55;26.40;;;7.50;;
23898;SDS011;20544;50.018;20.010;2022-08-25T15:19:13;27.78;;;7.80;;
23898;SDS011;20544;50.018;20.010;2022-08-25T15:22:32;17.90;;;6.28;;
23898;SDS011;20544;50.018;20.010;2022-08-25T15:25:53;20.73;;;6.60;;
23898;SDS011;20544;50.018;20.010;2022-08-25T15:29:10;22.25;;;7.38;;
23898;SDS011;20544;50.018;20.010;2022-08-25T15:32:28;20.78;;;6.08;;
23898;SDS011;20544;50.018;20.010;2022-08-25T15:39:00;14.78;;;6.23;;
23898;SDS011;20544;50.018;20.010;2022-08-25T15:42:18;19.70;;;6.53;;
23898;SDS011;20544;50.018;20.010;2022-08-25T15:45:37;16.78;;;6.20;;
23898;SDS011;20544;50.018;20.010;2022-08-25T15:48:55;15.18;;;6.85;;
23898;SDS011;20544;50.018;20.010;2022-08-25T15:52:13;19.60;;;6.13;;
23898;SDS011;20544;50.018;20.010;2022-08-25T15:55:31;19.30;;;7.15;;
23898;SDS011;20544;50.018;20.010;2022-08-25T15:58:52;20.40;;;7.73;;
23898;SDS011;20544;50.018;20.010;2022-08-25T16:02:08;22.30;;;7.48;;
23898;SDS011;20544;50.018;20.010;2022-08-25T16:05:25;17.65;;;7.05;;
23898;SDS011;20544;50.018;20.010;2022-08-25T16:08:42;20.90;;;7.10;;
23898;SDS011;20544;50.018;20.010;2022-08-25T16:11:59;24.40;;;6.75;;
23898;SDS011;20544;50.018;20.010;2022-08-25T16:15:18;25.50;;;6.80;;
23898;SDS011;20544;50.018;20.010;2022-08-25T16:21:51;19.00;;;6.60;;
23898;SDS011;20544;50.018;20.010;2022-08-25T16:25:11;20.88;;;6.70;;
23898;SDS011;20544;50.018;20.010;2022-08-25T16:28:27;19.28;;;6.80;;
23898;SDS011;20544;50.018;20.010;2022-08-25T16:31:46;18.88;;;9.55;;
23898;SDS011;20544;50.018;20.010;2022-08-25T16:38:21;21.63;;;7.30;;
23898;SDS011;20544;50.018;20.010;2022-08-25T16:41:38;16.40;;;6.70;;
23898;SDS011;20544;50.018;20.010;2022-08-25T16:44:56;21.95;;;9.95;;
23898;SDS011;20544;50.018;20.010;2022-08-25T16:51:28;16.10;;;6.85;;
23898;SDS011;20544;50.018;20.010;2022-08-25T16:54:45;19.63;;;10.78;;
23898;SDS011;20544;50.018;20.010;2022-08-25T16:58:21;19.15;;;8.08;;
23898;SDS011;20544;50.018;20.010;2022-08-25T17:01:38;16.48;;;7.05;;
23898;SDS011;20544;50.018;20.010;2022-08-25T17:04:55;19.43;;;7.38;;
23898;SDS011;20544;50.018;20.010;2022-08-25T17:08:12;17.73;;;7.48;;
23898;SDS011;20544;50.018;20.010;2022-08-25T17:14:55;17.58;;;7.45;;
23898;SDS011;20544;50.018;20.010;2022-08-25T17:21:29;17.48;;;7.48;;
23898;SDS011;20544;50.018;20.010;2022-08-25T17:24:50;17.48;;;7.98;;
23898;SDS011;20544;50.018;20.010;2022-08-25T17:28:09;18.75;;;7.75;;
23898;SDS011;20544;50.018;20.010;2022-08-25T17:31:26;15.98;;;8.08;;
23898;SDS011;20544;50.018;20.010;2022-08-25T17:34:45;25.25;;;8.98;;
23898;SDS011;20544;50.018;20.010;2022-08-25T17:38:01;20.40;;;8.80;;
23898;SDS011;20544;50.018;20.010;2022-08-25T17:41:18;21.05;;;8.40;;
23898;SDS011;20544;50.018;20.010;2022-08-25T17:44:34;18.23;;;8.20;;
23898;SDS011;20544;50.018;20.010;2022-08-25T17:47:51;22.68;;;9.28;;
23898;SDS011;20544;50.018;20.010;2022-08-25T17:51:07;22.53;;;9.70;;
23898;SDS011;20544;50.018;20.010;2022-08-25T17:54:24;20.13;;;8.60;;
23898;SDS011;20544;50.018;20.010;2022-08-25T17:57:41;20.03;;;9.73;;
23898;SDS011;20544;50.018;20.010;2022-08-25T18:00:57;22.33;;;9.25;;
23898;SDS011;20544;50.018;20.010;2022-08-25T18:04:14;24.05;;;9.35;;
23898;SDS011;20544;50.018;20.010;2022-08-25T18:07:32;19.20;;;8.55;;
23898;SDS011;20544;50.018;20.010;2022-08-25T18:10:49;20.03;;;8.95;;
23898;SDS011;20544;50.018;20.010;2022-08-25T18:14:05;20.43;;;9.03;;
23898;SDS011;20544;50.018;20.010;2022-08-25T18:17:40;15.73;;;8.65;;
23898;SDS011;20544;50.018;20.010;2022-08-25T18:26:22;31.58;;;13.93;;
23898;SDS011;20544;50.018;20.010;2022-08-25T18:29:39;22.35;;;11.65;;
23898;SDS011;20544;50.018;20.010;2022-08-25T18:32:56;23.15;;;10.38;;
23898;SDS011;20544;50.018;20.010;2022-08-25T18:36:13;29.25;;;10.05;;
23898;SDS011;20544;50.018;20.010;2022-08-25T18:39:31;22.15;;;9.93;;
23898;SDS011;20544;50.018;20.010;2022-08-25T18:43:02;20.65;;;9.75;;
23898;SDS011;20544;50.018;20.010;2022-08-25T18:46:23;22.18;;;10.33;;
23898;SDS011;20544;50.018;20.010;2022-08-25T18:49:41;21.13;;;9.75;;
23898;SDS011;20544;50.018;20.010;2022-08-25T18:53:05;26.13;;;10.30;;
23898;SDS011;20544;50.018;20.010;2022-08-25T18:56:22;24.15;;;10.50;;
23898;SDS011;20544;50.018;20.010;2022-08-25T18:59:39;24.18;;;11.08;;
23898;SDS011;20544;50.018;20.010;2022-08-25T19:02:56;23.08;;;11.03;;
23898;SDS011;20544;50.018;20.010;2022-08-25T19:06:14;23.50;;;11.20;;
23898;SDS011;20544;50.018;20.010;2022-08-25T19:09:31;27.93;;;11.15;;
23898;SDS011;20544;50.018;20.010;2022-08-25T19:12:45;20.52;;;10.75;;
23898;SDS011;20544;50.018;20.010;2022-08-25T19:16:08;20.35;;;11.08;;
23898;SDS011;20544;50.018;20.010;2022-08-25T19:19:28;26.45;;;11.25;;
23898;SDS011;20544;50.018;20.010;2022-08-25T19:22:44;23.75;;;12.00;;
23898;SDS011;20544;50.018;20.010;2022-08-25T19:26:02;21.73;;;12.00;;
23898;SDS011;20544;50.018;20.010;2022-08-25T19:29:23;21.77;;;11.73;;
23898;SDS011;20544;50.018;20.010;2022-08-25T19:32:40;24.10;;;11.43;;
23898;SDS011;20544;50.018;20.010;2022-08-25T19:39:14;17.78;;;11.20;;
23898;SDS011;20544;50.018;20.010;2022-08-25T19:42:32;22.95;;;11.48;;
23898;SDS011;20544;50.018;20.010;2022-08-25T19:45:48;25.25;;;11.75;;
23898;SDS011;20544;50.018;20.010;2022-08-25T19:52:24;20.43;;;10.70;;
23898;SDS011;20544;50.018;20.010;2022-08-25T19:55:40;22.43;;;11.73;;
23898;SDS011;20544;50.018;20.010;2022-08-25T19:58:57;23.10;;;11.13;;
23898;SDS011;20544;50.018;20.010;2022-08-25T20:02:15;24.23;;;12.53;;
23898;SDS011;20544;50.018;20.010;2022-08-25T20:05:35;23.90;;;13.25;;
23898;SDS011;20544;50.018;20.010;2022-08-25T20:08:53;25.73;;;11.83;;
23898;SDS011;20544;50.018;20.010;2022-08-25T20:12:10;18.40;;;10.98;;
23898;SDS011;20544;50.018;20.010;2022-08-25T20:15:26;23.00;;;10.45;;
23898;SDS011;20544;50.018;20.010;2022-08-25T20:18:44;20.60;;;10.70;;
23898;SDS011;20544;50.018;20.010;2022-08-25T20:22:00;27.03;;;11.75;;
23898;SDS011;20544;50.018;20.010;2022-08-25T20:25:19;20.23;;;11.10;;
23898;SDS011;20544;50.018;20.010;2022-08-25T20:28:39;22.03;;;11.38;;
23898;SDS011;20544;50.018;20.010;2022-08-25T20:31:56;21.00;;;10.68;;
23898;SDS011;20544;50.018;20.010;2022-08-25T20:38:30;24.78;;;11.65;;
23898;SDS011;20544;50.018;20.010;2022-08-25T20:41:47;18.35;;;11.35;;
23898;SDS011;20544;50.018;20.010;2022-08-25T20:45:05;21.48;;;11.88;;
23898;SDS011;20544;50.018;20.010;2022-08-25T20:48:23;25.05;;;11.30;;
23898;SDS011;20544;50.018;20.010;2022-08-25T20:51:40;18.03;;;11.68;;
23898;SDS011;20544;50.018;20.010;2022-08-25T20:54:57;21.90;;;11.45;;
23898;SDS011;20544;50.018;20.010;2022-08-25T20:58:13;26.43;;;12.58;;
23898;SDS011;20544;50.018;20.010;2022-08-25T21:01:32;20.38;;;11.78;;
23898;SDS011;20544;50.018;20.010;2022-08-25T21:04:48;22.93;;;12.03;;
23898;SDS011;20544;50.018;20.010;2022-08-25T21:08:06;18.48;;;10.73;;
23898;SDS011;20544;50.018;20.010;2022-08-25T21:11:23;23.48;;;10.98;;
23898;SDS011;20544;50.018;20.010;2022-08-25T21:14:39;23.53;;;11.15;;
23898;SDS011;20544;50.018;20.010;2022-08-25T21:17:57;19.35;;;11.73;;
23898;SDS011;20544;50.018;20.010;2022-08-25T21:24:32;23.05;;;12.08;;
23898;SDS011;20544;50.018;20.010;2022-08-25T21:27:49;23.58;;;11.73;;
23898;SDS011;20544;50.018;20.010;2022-08-25T21:31:06;17.93;;;10.83;;